Aviation Digital Data Service (ADDS)

Output produced by METARs form (1911 UTC 23 April 2018)
found at http://www.aviationweather.gov/adds/metars/
 
KMBO 231855Z AUTO 26007KT 10SM OVC030 16/10 A2995 RMK AO2 PWINO
KMBO 231835Z AUTO 27004KT 10SM BKN030 OVC034 15/10 A2996 RMK AO2 PWINO
KMBO 231815Z AUTO 25007KT 10SM SCT027 BKN036 16/11 A2996 RMK AO2 PWINO
KMBO 231755Z AUTO 25008KT 10SM SCT027 OVC036 15/10 A2996 RMK AO2 PWINO
KMBO 231735Z AUTO 25006KT 10SM SCT025 BKN036 16/10 A2996 RMK AO2 PWINO
KMBO 231715Z AUTO 29005KT 10SM SCT022 BKN032 BKN037 15/10 A2997 RMK AO2 PWINO
KMBO 231655Z AUTO 26006KT 10SM BKN027 BKN032 14/10 A2997 RMK AO2 PWINO
KMBO 231635Z AUTO 27004KT 10SM BKN025 BKN032 BKN038 14/10 A2997 RMK AO2 PWINO
KMBO 231615Z AUTO 25005KT 10SM BKN028 OVC035 14/10 A2997 RMK AO2 PWINO
KMBO 231555Z AUTO 26004KT 10SM SCT023 OVC032 14/10 A2997 RMK AO2 PWINO
KMBO 231535Z AUTO 25005KT 10SM BKN024 OVC032 15/10 A2997 RMK AO2 PWINO
KMBO 231515Z AUTO 26004KT 10SM BKN020 BKN026 BKN039 15/10 A2997 RMK AO2 PWINO
KMBO 231455Z AUTO 27004KT 10SM BKN018 OVC037 14/11 A2997 RMK AO2 PWINO
KMBO 231435Z AUTO 24005KT 10SM OVC018 13/10 A2997 RMK AO2 PWINO
KMBO 231415Z AUTO 29004KT 10SM OVC018 13/10 A2996 RMK AO2 PWINO
KMBO 231355Z AUTO 27004KT 10SM OVC014 12/10 A2996 RMK AO2 PWINO
KMBO 231335Z AUTO 00000KT 10SM BKN011 OVC016 12/11 A2996 RMK AO2 PWINO
KMBO 231315Z AUTO 24005KT 10SM SCT011 OVC017 12/11 A2995 RMK AO2 PWINO
KMBO 231255Z AUTO 24003KT 10SM SCT009 OVC017 12/11 A2995 RMK AO2 PWINO
KMBO 231235Z AUTO 00000KT 10SM OVC017 12/11 A2995 RMK AO2 PWINO
KMBO 231215Z AUTO 24005KT 10SM OVC017 11/10 A2995 RMK AO2 PWINO
KMBO 231155Z AUTO 24003KT 10SM OVC015 11/10 A2994 RMK AO2 PWINO
KMBO 231135Z AUTO 25004KT 10SM OVC015 11/10 A2993 RMK AO2 PWINO
KMBO 231115Z AUTO 25004KT 10SM BKN015 BKN033 OVC042 11/10 A2993 RMK AO2 PWINO
KMBO 231055Z AUTO 00000KT 10SM SCT017 OVC037 11/10 A2992 RMK AO2 PWINO
KMBO 231035Z AUTO 00000KT 10SM OVC035 11/10 A2991 RMK AO2 PWINO
KMBO 231015Z AUTO 00000KT 10SM OVC035 11/10 A2990 RMK AO2 PWINO
KMBO 230955Z AUTO 00000KT 10SM OVC033 11/10 A2990 RMK AO2 PWINO
KMBO 230935Z AUTO 00000KT 10SM OVC033 11/10 A2990 RMK AO2 PWINO
KMBO 230915Z AUTO 24003KT 10SM BKN033 10/10 A2989 RMK AO2 PWINO
KMBO 230855Z AUTO 23003KT 10SM CLR 10/09 A2989 RMK AO2 PWINO
KMBO 230835Z AUTO 00000KT 10SM CLR 11/09 A2989 RMK AO2 PWINO
KMBO 230815Z AUTO 25003KT 10SM CLR 11/09 A2989 RMK AO2 PWINO
KMBO 230755Z AUTO 24003KT 10SM CLR 11/10 A2989 RMK AO2 PWINO
KMBO 230735Z AUTO 25004KT 10SM CLR 11/10 A2989 RMK AO2 PWINO
KMBO 230715Z AUTO 24003KT 10SM SCT041 12/10 A2990 RMK AO2 PWINO
KMBO 230655Z AUTO 24005KT 10SM BKN039 12/11 A2991 RMK AO2 PWINO
KMBO 230635Z AUTO 25004KT 10SM OVC037 13/11 A2992 RMK AO2 PWINO
KMBO 230615Z AUTO 23004KT 10SM OVC037 13/11 A2992 RMK AO2 PWINO
KMBO 230555Z AUTO 24003KT 10SM BKN031 OVC037 13/11 A2992 RMK AO2 PWINO
KMBO 230535Z AUTO 26004KT 10SM OVC031 13/11 A2993 RMK AO2 PWINO
KMBO 230515Z AUTO 26006G14KT 10SM SCT017 OVC033 13/11 A2993 RMK AO2 PWINO
KMBO 230455Z AUTO 26007KT 10SM SCT017 BKN031 OVC035 13/12 A2993 RMK AO2 PWINO
KMBO 230435Z AUTO 26007KT 10SM SCT017 SCT031 14/12 A2993 RMK AO2 PWINO
KMBO 230415Z AUTO 27007KT 10SM SCT026 SCT040 14/12 A2993 RMK AO2 PWINO
KMBO 230355Z AUTO 28004KT 10SM SCT022 SCT026 BKN033 15/12 A2993 RMK AO2 PWINO
KMBO 230335Z AUTO 27007KT 10SM SCT020 SCT033 15/13 A2992 RMK AO2 PWINO
KMBO 230315Z AUTO 27009KT 10SM SCT017 SCT023 SCT030 16/13 A2991 RMK AO2 PWINO
KMBO 230255Z AUTO 26007KT 10SM SCT028 SCT060 16/15 A2990 RMK AO2 PWINO
KMBO 230235Z AUTO 25003KT 10SM BKN060 BKN090 16/15 A2990 RMK AO2 PWINO
KMBO 230215Z AUTO 25005KT 10SM OVC060 16/15 A2989 RMK AO2 PWINO
KMBO 230155Z AUTO 27004KT 10SM OVC060 16/15 A2988 RMK AO2 PWINO
KMBO 230135Z AUTO 25003KT 10SM SCT048 BKN060 16/15 A2988 RMK AO2 PWINO
KMBO 230115Z AUTO 00000KT 10SM SCT048 BKN060 16/15 A2987 RMK AO2 PWINO
KMBO 230055Z AUTO 00000KT 10SM SCT020 SCT029 SCT060 16/15 A2986 RMK AO2 PWINO
KMBO 230035Z AUTO 00000KT 10SM SCT032 SCT039 SCT060 16/15 A2986 RMK AO2 PWINO
KMBO 230015Z AUTO 26003KT 10SM SCT016 SCT034 BKN044 16/15 A2985 RMK AO2 PWINO
KMBO 222355Z AUTO 00000KT 10SM BKN016 BKN021 OVC046 17/15 A2985 RMK AO2 PWINO
KMBO 222335Z AUTO 00000KT 10SM BKN018 OVC025 17/15 A2984 RMK AO2 PWINO
KMBO 222315Z AUTO 31007KT 10SM BKN019 OVC026 17/15 A2984 RMK AO2 PWINO
KMBO 222255Z AUTO 28005KT 10SM BKN019 OVC024 18/15 A2984 RMK AO2 PWINO
KMBO 222235Z AUTO 30006KT 10SM OVC022 18/15 A2984 RMK AO2 PWINO
KMBO 222215Z AUTO 29004KT 10SM BKN018 OVC026 18/15 A2983 RMK AO2 LTG DSNT E PWINO
KMBO 222155Z AUTO 31003G14KT 10SM SCT018 BKN029 BKN044 18/15 A2983 RMK AO2 PWINO
KMBO 222135Z AUTO 32005KT 10SM SCT018 BKN031 BKN065 18/16 A2983 RMK AO2 PWINO
KMBO 222055Z AUTO 29005KT 10SM SCT015 SCT022 SCT035 18/16 A2983 RMK AO2 PWINO
KMBO 222035Z AUTO 30005KT 10SM SCT013 18/16 A2982 RMK AO2 PWINO
KMBO 221955Z AUTO 00000KT 10SM SCT003 BKN009 BKN014 17/16 A2984 RMK AO2 PWINO
KMBO 221915Z AUTO 00000KT 7SM BKN007 BKN013 OVC044 17/16 A2986 RMK AO2 PWINO
KMBO 221855Z AUTO 00000KT 10SM SCT006 SCT010 BKN044 17/16 A2984 RMK AO2 PWINO
KMBO 221835Z AUTO 06003KT 10SM SCT004 OVC009 17/16 A2985 RMK AO2 PWINO
KMBO 221815Z AUTO 34004KT 5SM OVC008 16/16 A2987 RMK AO2 PWINO
KMBO 221755Z AUTO 33005KT 5SM SCT005 BKN012 OVC019 17/16 A2988 RMK AO2 PWINO
KMBO 221735Z AUTO 34005KT 7SM SCT005 BKN009 OVC015 16/16 A2989 RMK AO2 PWINO
KMBO 221715Z AUTO 00000KT 5SM BKN010 BKN016 OVC029 16/16 A2990 RMK AO2 PWINO
KMBO 221655Z AUTO 34003KT 7SM SCT006 BKN010 OVC031 16/16 A2991 RMK AO2 PWINO
KMBO 221635Z AUTO 33005KT 10SM SCT004 SCT008 OVC033 16/16 A2990 RMK AO2 PWINO
KMBO 221555Z AUTO 00000KT 2SM BKN003 OVC007 16/16 A2993 RMK AO2 PWINO
KMBO 221535Z AUTO 00000KT 7SM OVC003 16/16 A2993 RMK AO2 PWINO
KMBO 221515Z AUTO 00000KT 3SM OVC005 16/16 A2994 RMK AO2 PWINO
KMBO 221455Z AUTO 00000KT 3SM OVC005 16/16 A2995 RMK AO2 PWINO
KMBO 221435Z AUTO 00000KT 5SM OVC005 16/16 A2994 RMK AO2 PWINO
KMBO 221415Z AUTO 00000KT 5SM OVC005 16/16 A2995 RMK AO2 PWINO
KMBO 221355Z AUTO 00000KT 3SM BKN003 OVC010 16/16 A2996 RMK AO2 LTG DSNT NW PWINO
KMBO 221335Z AUTO 13004KT 4SM BKN005 OVC010 16/16 A2995 RMK AO2 PWINO
KMBO 221315Z AUTO 14003KT 3SM BKN005 OVC010 16/16 A2996 RMK AO2 PWINO
KMBO 221255Z AUTO 09004KT 4SM BKN005 OVC011 16/16 A2996 RMK AO2 PWINO
KMBO 221235Z AUTO 13003KT 5SM BKN003 OVC009 16/16 A2998 RMK AO2 PWINO
KMBO 221215Z AUTO 14003KT 4SM OVC003 16/16 A2998 RMK AO2 PWINO
KMBO 221155Z AUTO 12003KT 3SM OVC005 16/16 A2998 RMK AO2 PWINO
KMBO 221135Z AUTO 12004KT 1 3/4SM OVC005 16/16 A2998 RMK AO2 PWINO
KMBO 221115Z AUTO 00000KT 3SM OVC003 16/16 A2998 RMK AO2 PWINO
KMBO 221055Z AUTO 00000KT 4SM OVC005 16/16 A3000 RMK AO2 PWINO
KMBO 221035Z AUTO 00000KT 3SM OVC003 16/16 A2999 RMK AO2 PWINO
KMBO 221015Z AUTO 00000KT 7SM SCT003 SCT022 BKN046 16/15 A2999 RMK AO2 PWINO
KMBO 220955Z AUTO 00000KT 10SM SCT046 SCT060 SCT065 17/15 A2999 RMK AO2 PWINO
KMBO 220935Z AUTO 00000KT 10SM SCT060 SCT075 17/15 A2998 RMK AO2 PWINO
KMBO 220915Z AUTO 00000KT 10SM SCT060 BKN075 17/15 A3000 RMK AO2 PWINO
KMBO 220855Z AUTO 19003KT 10SM SCT024 SCT050 BKN070 17/15 A3001 RMK AO2 PWINO
KMBO 220835Z AUTO 21006KT 10SM SCT024 SCT070 17/15 A3002 RMK AO2 PWINO
KMBO 220815Z AUTO 00000KT 10SM CLR 17/14 A2997 RMK AO2 PWINO
KMBO 220755Z AUTO 13004KT 10SM CLR 17/14 A2995 RMK AO2 PWINO
KMBO 220735Z AUTO 00000KT 10SM CLR 17/14 A2997 RMK AO2 PWINO
KMBO 220715Z AUTO 18003KT 10SM CLR 18/15 A2997 RMK AO2 PWINO
KMBO 220655Z AUTO 15004KT 10SM CLR 18/15 A2998 RMK AO2 PWINO
KMBO 220635Z AUTO 11005KT 10SM CLR 18/15 A2997 RMK AO2 PWINO
KMBO 220615Z AUTO 11003KT 10SM CLR 18/15 A2999 RMK AO2 PWINO
KMBO 220555Z AUTO 16003KT 10SM CLR 18/15 A3003 RMK AO2 PWINO
KMBO 220535Z AUTO 16005KT 10SM CLR 18/15 A3002 RMK AO2 PWINO
KMBO 220515Z AUTO 00000KT 10SM CLR 18/14 A3003 RMK AO2 PWINO
KMBO 220455Z AUTO 14004KT 10SM CLR 18/14 A3001 RMK AO2 PWINO
KMBO 220435Z AUTO 11003KT 10SM CLR 18/13 A3000 RMK AO2 PWINO
KMBO 220415Z AUTO 10003KT 10SM CLR 18/13 A3004 RMK AO2 PWINO
KMBO 220355Z AUTO 00000KT 10SM CLR 18/13 A3003 RMK AO2 PWINO
KMBO 220335Z AUTO 00000KT 10SM CLR 18/13 A3007 RMK AO2 PWINO
KMBO 220315Z AUTO 00000KT 10SM CLR 19/13 A3006 RMK AO2 PWINO
KMBO 220255Z AUTO 10004KT 10SM SCT060 19/13 A3004 RMK AO2 PWINO
KMBO 220235Z AUTO 00000KT 10SM SCT060 19/13 A3005 RMK AO2 PWINO
KMBO 220215Z AUTO 00000KT 10SM BKN060 BKN120 19/13 A3007 RMK AO2 PWINO
KMBO 220155Z AUTO 00000KT 10SM SCT060 SCT070 19/13 A3007 RMK AO2 PWINO
KMBO 220135Z AUTO 00000KT 10SM SCT055 SCT065 18/14 A3006 RMK AO2 PWINO
KMBO 220115Z AUTO 00000KT 10SM SCT060 SCT075 18/15 A3006 RMK AO2 PWINO
KMBO 220055Z AUTO 00000KT 10SM SCT050 BKN075 18/15 A3006 RMK AO2 PWINO
KMBO 220035Z AUTO 00000KT 10SM BKN050 BKN075 19/14 A3006 RMK AO2 PWINO
KMBO 220015Z AUTO 00000KT 10SM SCT055 20/13 A3006 RMK AO2 PWINO
KMBO 212355Z AUTO 00000KT 10SM SCT055 20/13 A3005 RMK AO2 PWINO
KMBO 212335Z AUTO 00000KT 10SM CLR 21/13 A3004 RMK AO2 PWINO
KMBO 212315Z AUTO 00000KT 10SM CLR 22/13 A3005 RMK AO2 PWINO
KMBO 212255Z AUTO 00000KT 10SM SCT055 22/13 A3005 RMK AO2 PWINO
KMBO 212235Z AUTO 12003KT 10SM CLR 22/12 A3005 RMK AO2 PWINO
KMBO 212215Z AUTO 12005KT 10SM CLR 23/12 A3006 RMK AO2 PWINO
KMBO 212155Z AUTO 00000KT 10SM CLR 22/12 A3006 RMK AO2 PWINO
KMBO 212135Z AUTO 18005KT 10SM CLR 23/13 A3006 RMK AO2 PWINO
KMBO 212115Z AUTO 17006KT 10SM SCT060 23/12 A3007 RMK AO2 PWINO
KMBO 212055Z AUTO 15004KT 10SM SCT049 SCT060 23/12 A3007 RMK AO2 PWINO
KMBO 212035Z AUTO 14004KT 10SM BKN049 BKN060 22/12 A3007 RMK AO2 PWINO
KMBO 212015Z AUTO 13006KT 10SM SCT049 23/12 A3007 RMK AO2 PWINO
KMBO 211955Z AUTO 15005KT 10SM SCT055 22/12 A3008 RMK AO2 PWINO
KMBO 211935Z AUTO 14004KT 10SM SCT050 23/12 A3009 RMK AO2 PWINO
KMBO 211915Z AUTO 15005KT 10SM SCT050 SCT055 22/11 A3010 RMK AO2 PWINO
KMBO 211855Z AUTO 13005KT 10SM SCT048 22/12 A3011 RMK AO2 PWINO
KMBO 211835Z AUTO 13004KT 10SM CLR 23/12 A3012 RMK AO2 PWINO
KMBO 211815Z AUTO 14005KT 10SM SCT045 22/12 A3012 RMK AO2 PWINO
KMBO 211755Z AUTO 12007KT 10SM SCT043 22/13 A3014 RMK AO2 PWINO
KMBO 211735Z AUTO 13007KT 10SM SCT043 22/12 A3014 RMK AO2 PWINO
KMBO 211715Z AUTO 15005KT 10SM SCT043 22/12 A3015 RMK AO2 PWINO
KMBO 211655Z AUTO 13008KT 10SM SCT043 21/12 A3016 RMK AO2 PWINO
KMBO 211635Z AUTO 12007KT 082V142 10SM CLR 21/11 A3016 RMK AO2 PWINO
KMBO 211615Z AUTO 14005KT 10SM CLR 21/11 A3017 RMK AO2 PWINO
KMBO 211555Z AUTO 17004KT 10SM CLR 20/11 A3018 RMK AO2 PWINO
KMBO 211535Z AUTO 13005KT 10SM CLR 19/11 A3019 RMK AO2 PWINO
KMBO 211515Z AUTO 13004KT 10SM CLR 18/11 A3019 RMK AO2 PWINO
KMBO 211455Z AUTO 13004KT 10SM CLR 18/11 A3019 RMK AO2 PWINO
KMBO 211435Z AUTO 15004KT 10SM CLR 17/11 A3018 RMK AO2 LTG DSNT NW PWINO
KMBO 211415Z AUTO 12003KT 10SM CLR 16/10 A3017 RMK AO2 PWINO
KMBO 211355Z AUTO 11005KT 10SM CLR 15/08 A3017 RMK AO2 LTG DSNT NW PWINO
KMBO 211335Z AUTO 11006KT 10SM CLR 13/07 A3017 RMK AO2 PWINO
KMBO 211315Z AUTO 11003KT 10SM CLR 13/07 A3017 RMK AO2 PWINO
KMBO 211255Z AUTO 11005KT 10SM CLR 12/07 A3017 RMK AO2 PWINO
KMBO 211235Z AUTO 11003KT 10SM CLR 12/07 A3018 RMK AO2 PWINO
KMBO 211215Z AUTO 00000KT 10SM CLR 12/06 A3018 RMK AO2 PWINO
KMBO 211155Z AUTO 00000KT 10SM CLR 11/06 A3018 RMK AO2 PWINO
KMBO 211135Z AUTO 12004KT 10SM CLR 11/06 A3017 RMK AO2 PWINO
KMBO 211115Z AUTO 09003KT 10SM CLR 11/06 A3016 RMK AO2 PWINO
KMBO 211055Z AUTO 00000KT 10SM CLR 11/06 A3016 RMK AO2 PWINO
KMBO 211035Z AUTO 00000KT 10SM CLR 11/06 A3016 RMK AO2 PWINO
KMBO 211015Z AUTO 12003KT 10SM CLR 10/06 A3015 RMK AO2 PWINO
KMBO 210955Z AUTO 00000KT 10SM CLR 11/06 A3015 RMK AO2 PWINO
KMBO 210935Z AUTO 00000KT 10SM CLR 10/07 A3015 RMK AO2 PWINO
KMBO 210915Z AUTO 10003KT 10SM CLR 09/07 A3015 RMK AO2 PWINO
KMBO 210855Z AUTO 00000KT 10SM CLR 08/08 A3016 RMK AO2 PWINO
KMBO 210835Z AUTO 00000KT 10SM CLR 08/07 A3016 RMK AO2 PWINO
KMBO 210815Z AUTO 00000KT 10SM CLR 08/07 A3016 RMK AO2 PWINO
KMBO 210755Z AUTO 00000KT 10SM CLR 07/07 A3016 RMK AO2 PWINO
KMBO 210735Z AUTO 00000KT 10SM CLR 07/07 A3016 RMK AO2 PWINO
KMBO 210715Z AUTO 00000KT 10SM CLR 08/08 A3017 RMK AO2 PWINO
KMBO 210655Z AUTO 00000KT 10SM CLR 08/08 A3017 RMK AO2 PWINO
KMBO 210635Z AUTO 00000KT 10SM CLR 08/08 A3018 RMK AO2 PWINO
KMBO 210615Z AUTO 00000KT 10SM CLR 08/08 A3018 RMK AO2 PWINO
KMBO 210555Z AUTO 00000KT 10SM CLR 08/08 A3019 RMK AO2 PWINO
KMBO 210535Z AUTO 00000KT 10SM CLR 08/08 A3019 RMK AO2 PWINO
KMBO 210515Z AUTO 00000KT 10SM CLR 08/08 A3020 RMK AO2 PWINO
KMBO 210455Z AUTO 00000KT 10SM CLR 08/07 A3020 RMK AO2 PWINO
KMBO 210435Z AUTO 00000KT 10SM CLR 10/08 A3020 RMK AO2 PWINO
KMBO 210415Z AUTO 00000KT 10SM CLR 10/08 A3020 RMK AO2 PWINO
KMBO 210355Z AUTO 00000KT 10SM CLR 10/08 A3021 RMK AO2 PWINO
KMBO 210335Z AUTO 00000KT 10SM CLR 10/08 A3021 RMK AO2 PWINO
KMBO 210315Z AUTO 00000KT 10SM CLR 11/08 A3021 RMK AO2 PWINO
KMBO 210255Z AUTO 00000KT 10SM CLR 10/08 A3021 RMK AO2 PWINO
KMBO 210235Z AUTO 00000KT 10SM CLR 11/08 A3021 RMK AO2 PWINO
KMBO 210215Z AUTO 00000KT 10SM CLR 12/08 A3020 RMK AO2 PWINO
KMBO 210155Z AUTO 00000KT 10SM CLR 12/08 A3020 RMK AO2 PWINO
KMBO 210135Z AUTO 00000KT 10SM CLR 12/08 A3019 RMK AO2 PWINO
KMBO 210115Z AUTO 00000KT 10SM CLR 13/08 A3019 RMK AO2 PWINO
KMBO 210055Z AUTO 00000KT 10SM CLR 13/08 A3018 RMK AO2 PWINO
KMBO 210035Z AUTO 00000KT 10SM CLR 15/08 A3018 RMK AO2 PWINO
KMBO 210015Z AUTO 00000KT 10SM CLR 17/07 A3018 RMK AO2 PWINO
KMBO 202355Z AUTO 00000KT 10SM CLR 18/07 A3018 RMK AO2 PWINO
KMBO 202335Z AUTO 00000KT 10SM CLR 18/06 A3018 RMK AO2 PWINO
KMBO 202315Z AUTO 08003KT 10SM CLR 19/06 A3019 RMK AO2 PWINO
KMBO 202255Z AUTO 06003KT 10SM CLR 20/06 A3019 RMK AO2 PWINO
KMBO 202235Z AUTO 07003KT 10SM CLR 20/06 A3020 RMK AO2 PWINO
KMBO 202215Z AUTO 00000KT 10SM CLR 20/05 A3021 RMK AO2 PWINO
KMBO 202155Z AUTO 00000KT 10SM CLR 20/05 A3021 RMK AO2 PWINO
KMBO 202135Z AUTO 00000KT 10SM CLR 19/05 A3021 RMK AO2 PWINO
KMBO 202115Z AUTO 03004KT 10SM CLR 19/05 A3021 RMK AO2 PWINO
KMBO 202055Z AUTO 07003KT 10SM CLR 18/04 A3022 RMK AO2 PWINO
KMBO 202035Z AUTO 10003KT 10SM CLR 18/03 A3022 RMK AO2 PWINO
KMBO 202015Z AUTO 06005KT 10SM CLR 18/03 A3023 RMK AO2 PWINO
KMBO 201955Z AUTO 08003KT 10SM CLR 18/03 A3024 RMK AO2 PWINO
KMBO 201935Z AUTO 05003KT 10SM CLR 17/03 A3025 RMK AO2 PWINO
KMBO 201915Z AUTO 08005KT 10SM CLR 17/02 A3026 RMK AO2 PWINO